createdAt,value
2018-03-15T00:02:34.453Z,16.25
2018-03-15T00:05:02.058Z,15.95
2018-03-15T00:07:30.479Z,14.87
2018-03-15T00:09:58.111Z,16.45
2018-03-15T00:12:25.722Z,15.05
2018-03-15T00:14:53.329Z,16.05
2018-03-15T00:17:20.963Z,13.62
2018-03-15T00:19:48.581Z,16.15
2018-03-15T00:22:16.190Z,20.80
2018-03-15T00:24:43.828Z,17.42
2018-03-15T00:27:11.452Z,19.65
2018-03-15T00:29:39.055Z,16.67
2018-03-15T00:32:06.701Z,14.50
2018-03-15T00:34:34.368Z,15.57
2018-03-15T00:37:02.753Z,18.70
2018-03-15T00:39:31.163Z,16.80
2018-03-15T00:41:58.780Z,16.37
2018-03-15T00:44:26.386Z,16.08
2018-03-15T00:46:54.038Z,17.08
2018-03-15T00:49:21.643Z,12.90
2018-03-15T00:51:50.018Z,17.10
2018-03-15T00:54:17.648Z,17.10
2018-03-15T00:56:45.277Z,13.98
2018-03-15T00:59:13.642Z,14.63
2018-03-15T01:01:41.275Z,15.43
2018-03-15T01:04:08.890Z,16.40
2018-03-15T01:06:36.500Z,16.45
2018-03-15T01:09:04.226Z,16.50
2018-03-15T01:11:31.828Z,15.10
2018-03-15T01:13:59.443Z,13.88
2018-03-15T01:16:27.070Z,13.45
2018-03-15T01:18:54.747Z,14.35
2018-03-15T01:21:22.354Z,16.40
2018-03-15T01:23:49.991Z,14.20
2018-03-15T01:26:17.608Z,16.10
2018-03-15T01:28:45.215Z,14.43
2018-03-15T01:31:12.852Z,13.77
2018-03-15T01:33:40.445Z,13.50
2018-03-15T01:36:08.066Z,11.95
2018-03-15T01:38:35.919Z,16.90
2018-03-15T01:41:03.519Z,12.60
2018-03-15T01:43:31.148Z,15.18
2018-03-15T01:45:58.803Z,14.23
2018-03-15T01:48:26.395Z,13.90
2018-03-15T01:50:54.000Z,16.02
2018-03-15T01:53:21.638Z,13.07
2018-03-15T01:55:49.233Z,11.30
2018-03-15T01:58:16.842Z,15.23
2018-03-15T02:00:45.322Z,13.18
2018-03-15T02:03:12.933Z,15.65
2018-03-15T02:05:40.641Z,12.75
2018-03-15T02:08:08.275Z,15.50
2018-03-15T02:10:35.898Z,17.42
2018-03-15T02:13:03.503Z,14.63
2018-03-15T02:15:31.158Z,14.50
2018-03-15T02:17:58.756Z,15.60
2018-03-15T02:20:27.145Z,14.50
2018-03-15T02:22:54.800Z,16.48
2018-03-15T02:25:22.485Z,21.52
2018-03-15T02:27:50.088Z,16.25
2018-03-15T02:30:17.720Z,18.25
2018-03-15T02:32:45.323Z,15.57
2018-03-15T02:35:13.739Z,21.05
2018-03-15T02:37:41.381Z,16.92
2018-03-15T02:40:09.006Z,15.25
2018-03-15T02:42:36.628Z,18.60
2018-03-15T02:45:05.056Z,17.85
2018-03-15T02:47:32.852Z,17.92
2018-03-15T02:50:00.552Z,15.50
2018-03-15T02:52:28.157Z,18.27
2018-03-15T02:54:55.805Z,17.92
2018-03-15T02:57:23.432Z,20.92
2018-03-15T02:59:51.077Z,22.50
2018-03-15T03:02:19.456Z,21.00
2018-03-15T03:04:47.072Z,23.80
2018-03-15T03:07:14.753Z,21.02
2018-03-15T03:09:42.380Z,18.25
2018-03-15T03:12:10.805Z,17.20
2018-03-15T03:14:38.418Z,17.77
2018-03-15T03:17:06.052Z,26.42
2018-03-15T03:19:33.671Z,18.87
2018-03-15T03:22:01.301Z,23.12
2018-03-15T03:24:28.913Z,27.80
2018-03-15T03:26:56.554Z,25.92
2018-03-15T03:29:24.204Z,19.80
2018-03-15T03:31:52.579Z,23.75
2018-03-15T03:34:20.393Z,23.95
2018-03-15T03:36:48.006Z,22.02
2018-03-15T03:39:15.671Z,25.90
2018-03-15T03:41:43.299Z,28.40
2018-03-15T03:44:11.711Z,24.23
2018-03-15T03:46:39.318Z,30.83
2018-03-15T03:49:06.965Z,21.80
2018-03-15T03:51:34.578Z,27.15
2018-03-15T03:54:02.206Z,22.85
2018-03-15T03:56:29.815Z,23.85
2018-03-15T03:58:57.414Z,26.25
2018-03-15T04:01:25.063Z,23.12
2018-03-15T04:03:52.663Z,21.55
2018-03-15T04:06:20.316Z,24.50
2018-03-15T04:08:47.915Z,23.05
2018-03-15T04:11:15.554Z,25.23
2018-03-15T04:13:43.164Z,20.05
2018-03-15T04:16:10.795Z,21.10
2018-03-15T04:18:38.394Z,27.20
2018-03-15T04:21:06.027Z,27.95
2018-03-15T04:23:33.641Z,24.23
2018-03-15T04:26:01.286Z,23.50
2018-03-15T04:28:28.908Z,19.15
2018-03-15T04:30:56.587Z,21.30
2018-03-15T04:33:24.991Z,32.83
2018-03-15T04:35:52.648Z,29.92
2018-03-15T04:38:20.393Z,21.85
2018-03-15T04:40:48.064Z,22.70
2018-03-15T04:43:15.714Z,24.02
2018-03-15T04:45:43.415Z,25.45
2018-03-15T04:48:11.046Z,26.60
2018-03-15T04:50:39.451Z,33.05
2018-03-15T04:53:07.095Z,30.35
2018-03-15T04:55:35.457Z,23.05
2018-03-15T04:58:03.104Z,24.37
2018-03-15T05:00:30.736Z,29.92
2018-03-15T05:02:58.337Z,25.65
2018-03-15T05:05:25.980Z,30.62
2018-03-15T05:07:54.367Z,27.00
2018-03-15T05:10:22.013Z,25.00
2018-03-15T05:12:49.633Z,25.55
2018-03-15T05:15:18.045Z,26.17
2018-03-15T05:17:45.647Z,36.80
2018-03-15T05:20:13.297Z,28.85
2018-03-15T05:22:40.907Z,35.58
2018-03-15T05:25:08.549Z,34.10
2018-03-15T05:27:36.190Z,29.90
2018-03-15T05:30:04.678Z,28.08
2018-03-15T05:32:32.318Z,34.28
2018-03-15T05:34:59.952Z,30.37
2018-03-15T05:37:27.622Z,32.70
2018-03-15T05:39:55.259Z,40.40
2018-03-15T05:42:22.938Z,45.45
2018-03-15T05:44:50.626Z,42.75
2018-03-15T05:47:19.087Z,40.83
2018-03-15T05:49:46.843Z,38.33
2018-03-15T05:52:14.452Z,36.13
2018-03-15T05:54:42.079Z,35.92
2018-03-15T05:57:09.709Z,34.10
2018-03-15T05:59:37.360Z,35.90
2018-03-15T06:02:04.995Z,32.83
2018-03-15T06:04:32.690Z,33.15
2018-03-15T06:07:00.314Z,32.42
2018-03-15T06:09:28.736Z,36.28
2018-03-15T06:11:56.347Z,40.03
2018-03-15T06:14:24.029Z,51.42
2018-03-15T06:16:51.723Z,35.15
2018-03-15T06:19:19.394Z,39.30
2018-03-15T06:21:47.024Z,47.22
2018-03-15T06:24:14.671Z,47.28
2018-03-15T06:26:42.335Z,49.58
2018-03-15T06:29:10.746Z,39.78
2018-03-15T06:31:38.392Z,51.58
2018-03-15T06:34:06.054Z,45.53
2018-03-15T06:36:33.690Z,47.10
2018-03-15T06:39:01.337Z,42.30
2018-03-15T06:41:29.004Z,35.15
2018-03-15T06:43:56.643Z,36.20
2018-03-15T06:46:24.302Z,36.13
2018-03-15T06:48:51.948Z,30.30
2018-03-15T06:51:19.597Z,33.58
2018-03-15T06:53:48.004Z,34.40
2018-03-15T06:56:15.613Z,33.58
2018-03-15T06:58:43.276Z,32.65
2018-03-15T07:01:10.890Z,36.97
2018-03-15T07:03:38.525Z,30.62
2018-03-15T07:06:06.131Z,35.10
2018-03-15T07:08:33.760Z,29.98
2018-03-15T07:11:01.375Z,34.53
2018-03-15T07:13:29.009Z,29.55
2018-03-15T07:15:56.612Z,29.15
2018-03-15T07:18:24.237Z,29.67
2018-03-15T07:20:51.894Z,31.75
2018-03-15T07:23:19.536Z,29.80
2018-03-15T07:25:47.300Z,29.70
2018-03-15T07:28:14.919Z,28.17
2018-03-15T07:30:43.346Z,28.23
2018-03-15T07:33:10.951Z,28.85
2018-03-15T07:35:38.594Z,27.83
2018-03-15T07:38:06.228Z,27.60
2018-03-15T07:40:33.855Z,27.73
2018-03-15T07:43:01.455Z,34.28
2018-03-15T07:45:29.095Z,28.20
2018-03-15T07:47:56.702Z,26.30
2018-03-15T07:50:24.301Z,28.38
2018-03-15T07:52:52.715Z,28.62
2018-03-15T07:55:20.336Z,34.08
2018-03-15T07:57:47.972Z,30.37
2018-03-15T08:00:15.597Z,31.60
2018-03-15T08:02:43.240Z,29.48
2018-03-15T08:05:10.850Z,33.95
2018-03-15T08:07:38.487Z,28.83
2018-03-15T08:10:06.096Z,31.15
2018-03-15T08:12:33.758Z,28.38
2018-03-15T08:15:01.354Z,28.85
2018-03-15T08:17:28.979Z,29.30
2018-03-15T08:19:56.592Z,29.73
2018-03-15T08:22:24.255Z,29.02
2018-03-15T08:24:51.859Z,26.05
2018-03-15T08:27:19.504Z,29.12
2018-03-15T08:29:47.117Z,26.92
2018-03-15T08:32:14.738Z,26.75
2018-03-15T08:34:42.378Z,30.10
2018-03-15T08:37:09.980Z,30.08
2018-03-15T08:39:37.618Z,24.92
2018-03-15T08:42:05.240Z,27.80
2018-03-15T08:44:32.882Z,27.85
2018-03-15T08:47:00.487Z,26.70
2018-03-15T08:49:28.148Z,23.38
2018-03-15T08:51:55.752Z,22.98
2018-03-15T08:54:23.361Z,27.60
2018-03-15T08:56:51.771Z,25.60
2018-03-15T08:59:19.377Z,25.02
2018-03-15T09:01:47.032Z,24.30
2018-03-15T09:04:14.683Z,26.52
2018-03-15T09:06:42.321Z,24.55
2018-03-15T09:09:09.930Z,25.58
2018-03-15T09:11:37.595Z,24.40
2018-03-15T09:14:05.967Z,23.85
2018-03-15T09:16:34.369Z,25.70
2018-03-15T09:19:02.746Z,24.48
2018-03-15T09:21:30.390Z,23.60
2018-03-15T09:23:58.010Z,21.30
2018-03-15T09:26:26.387Z,23.38
2018-03-15T09:28:54.021Z,23.73
2018-03-15T09:31:21.651Z,22.85
2018-03-15T09:33:49.324Z,22.85
2018-03-15T09:36:16.970Z,21.95
2018-03-15T09:38:44.632Z,25.27
2018-03-15T09:41:12.254Z,26.90
2018-03-15T09:43:39.953Z,22.73
2018-03-15T09:46:07.611Z,26.23
2018-03-15T09:48:36.021Z,21.77
2018-03-15T09:51:03.665Z,24.73
2018-03-15T09:53:31.301Z,21.65
2018-03-15T09:55:58.951Z,23.17
2018-03-15T09:58:26.579Z,25.02
2018-03-15T10:00:55.015Z,23.35
2018-03-15T10:03:22.647Z,22.05
2018-03-15T10:05:51.098Z,19.70
2018-03-15T10:08:18.693Z,18.85
2018-03-15T10:10:47.117Z,18.60
2018-03-15T10:13:14.751Z,19.48
2018-03-15T10:15:42.404Z,18.73
2018-03-15T10:18:10.093Z,19.17
2018-03-15T10:20:37.721Z,17.58
2018-03-15T10:23:05.382Z,16.35
2018-03-15T10:25:33.006Z,14.35
2018-03-15T10:28:00.645Z,13.68
2018-03-15T10:30:28.273Z,16.12
2018-03-15T10:33:02.362Z,16.45
2018-03-15T10:35:30.018Z,14.00
2018-03-15T10:37:57.670Z,15.50
2018-03-15T10:40:26.059Z,14.82
2018-03-15T10:42:54.475Z,14.18
2018-03-15T10:45:22.107Z,17.12
2018-03-15T10:47:49.730Z,14.87
2018-03-15T10:50:17.395Z,14.40
2018-03-15T10:52:45.039Z,14.55
2018-03-15T10:55:13.474Z,15.93
2018-03-15T10:57:41.123Z,17.40
2018-03-15T11:00:08.789Z,16.67
2018-03-15T11:02:42.936Z,14.05
2018-03-15T11:05:16.228Z,17.23
2018-03-15T11:07:50.227Z,15.57
2018-03-15T11:10:17.942Z,16.08
2018-03-15T11:12:46.368Z,17.37
2018-03-15T11:15:13.951Z,15.82
2018-03-15T11:17:41.671Z,16.75
2018-03-15T11:20:10.147Z,17.05
2018-03-15T11:22:37.793Z,15.13
2018-03-15T11:25:05.423Z,17.55
2018-03-15T11:27:33.083Z,17.65
2018-03-15T11:30:00.718Z,17.17
2018-03-15T11:32:28.366Z,14.57
2018-03-15T11:34:55.995Z,15.95
2018-03-15T11:37:24.456Z,16.35
2018-03-15T11:39:52.066Z,14.60
2018-03-15T11:42:19.694Z,14.02
2018-03-15T11:44:47.350Z,13.73
2018-03-15T11:47:15.005Z,14.70
2018-03-15T11:49:42.653Z,10.90
2018-03-15T11:52:11.065Z,12.52
2018-03-15T11:54:38.710Z,9.85
2018-03-15T11:57:06.330Z,10.18
2018-03-15T11:59:33.966Z,9.88
2018-03-15T12:02:01.598Z,12.10
2018-03-15T12:04:29.230Z,10.70
2018-03-15T12:06:57.632Z,11.65
2018-03-15T12:09:26.067Z,11.05
2018-03-15T12:11:53.695Z,11.02
2018-03-15T12:14:22.074Z,10.35
2018-03-15T12:16:50.471Z,11.00
2018-03-15T12:19:18.087Z,11.80
2018-03-15T12:21:45.711Z,11.15
2018-03-15T12:24:13.332Z,12.40
2018-03-15T12:26:40.984Z,10.30
2018-03-15T12:29:09.390Z,10.70
2018-03-15T12:31:37.054Z,10.05
2018-03-15T12:34:05.447Z,13.15
2018-03-15T12:36:34.011Z,12.10
2018-03-15T12:39:01.648Z,11.32
2018-03-15T12:41:29.253Z,12.15
2018-03-15T12:43:56.890Z,10.23
2018-03-15T12:46:25.850Z,9.88
2018-03-15T12:48:53.483Z,10.65
2018-03-15T12:51:21.106Z,12.40
2018-03-15T12:53:49.502Z,12.68
2018-03-15T12:56:18.104Z,12.63
2018-03-15T12:58:45.761Z,11.15
2018-03-15T13:01:13.415Z,11.40
2018-03-15T13:03:41.055Z,10.48
2018-03-15T13:06:08.683Z,10.55
2018-03-15T13:08:36.272Z,10.60
2018-03-15T13:11:04.671Z,11.27
2018-03-15T13:13:33.057Z,12.85
2018-03-15T13:16:01.455Z,14.50
2018-03-15T13:18:29.068Z,9.45
2018-03-15T13:20:56.740Z,9.48
2018-03-15T13:23:24.353Z,10.00
2018-03-15T13:25:52.057Z,9.45
2018-03-15T13:28:19.676Z,7.45
2018-03-15T13:30:47.312Z,8.55
2018-03-15T13:33:14.935Z,8.45
2018-03-15T13:35:42.570Z,7.57
2018-03-15T13:38:10.232Z,7.37
2018-03-15T13:40:37.832Z,6.85
2018-03-15T13:43:05.430Z,7.73
2018-03-15T13:45:33.032Z,7.70
2018-03-15T13:48:01.415Z,6.57
2018-03-15T13:50:28.987Z,6.67
2018-03-15T13:52:56.603Z,5.80
2018-03-15T13:55:24.948Z,7.30
2018-03-15T13:57:52.596Z,6.60
2018-03-15T14:00:20.175Z,7.50
2018-03-15T14:02:47.755Z,7.80
2018-03-15T14:05:15.356Z,7.20
2018-03-15T14:07:42.959Z,7.10
2018-03-15T14:10:11.340Z,7.10
2018-03-15T14:12:38.952Z,7.47
2018-03-15T14:15:06.606Z,8.35
2018-03-15T14:17:34.223Z,6.78
2018-03-15T14:20:01.865Z,6.90
2018-03-15T14:22:29.463Z,7.12
2018-03-15T14:24:57.103Z,7.00
2018-03-15T14:27:24.684Z,6.33
2018-03-15T14:29:52.276Z,6.83
2018-03-15T14:32:19.887Z,6.20
2018-03-15T14:34:48.273Z,6.85
2018-03-15T14:37:16.688Z,7.72
2018-03-15T14:39:44.307Z,14.57
2018-03-15T14:42:11.973Z,22.05
2018-03-15T14:44:39.613Z,23.95
2018-03-15T14:47:07.276Z,24.87
2018-03-15T14:49:34.903Z,22.58
2018-03-15T14:52:02.549Z,24.17
2018-03-15T14:54:30.160Z,25.10
2018-03-15T14:56:57.796Z,28.48
2018-03-15T14:59:25.449Z,24.23
2018-03-15T15:01:53.061Z,26.20
2018-03-15T15:04:20.690Z,28.80
2018-03-15T15:06:49.093Z,33.65
2018-03-15T15:09:16.737Z,32.83
2018-03-15T15:11:45.107Z,35.38
2018-03-15T15:14:12.743Z,33.78
2018-03-15T15:16:40.460Z,32.83
2018-03-15T15:19:08.091Z,38.85
2018-03-15T15:21:35.691Z,41.83
2018-03-15T15:24:03.330Z,38.72
2018-03-15T15:26:31.205Z,43.25
2018-03-15T15:28:58.841Z,40.08
2018-03-15T15:31:26.476Z,45.88
2018-03-15T15:33:54.080Z,42.05
2018-03-15T15:36:21.714Z,42.35
2018-03-15T15:38:49.421Z,45.25
2018-03-15T15:41:17.044Z,43.63
2018-03-15T15:43:44.661Z,43.85
2018-03-15T15:46:12.334Z,45.53
2018-03-15T15:48:39.950Z,43.17
2018-03-15T15:51:08.344Z,43.17
2018-03-15T15:53:36.704Z,43.35
2018-03-15T15:56:04.476Z,42.13
2018-03-15T15:58:32.072Z,44.78
2018-03-15T16:00:59.885Z,43.67
2018-03-15T16:03:27.567Z,45.80
2018-03-15T16:05:55.203Z,43.17
2018-03-15T16:08:22.896Z,43.03
2018-03-15T16:10:51.270Z,40.72
2018-03-15T16:13:18.894Z,46.75
2018-03-15T16:15:46.577Z,46.47
2018-03-15T16:18:14.984Z,44.00
2018-03-15T16:20:42.850Z,43.80
2018-03-15T16:23:10.468Z,45.00
2018-03-15T16:25:38.101Z,46.97
2018-03-15T16:28:05.710Z,50.03
2018-03-15T16:30:33.346Z,48.70
2018-03-15T16:33:00.958Z,49.47
2018-03-15T16:35:28.592Z,48.72
2018-03-15T16:37:56.187Z,41.65
2018-03-15T16:40:23.812Z,42.72
2018-03-15T16:42:52.166Z,45.00
2018-03-15T16:45:19.803Z,41.10
2018-03-15T16:47:47.445Z,47.38
2018-03-15T16:50:15.140Z,47.78
2018-03-15T16:52:42.770Z,42.28
2018-03-15T16:55:10.518Z,41.50
2018-03-15T16:57:38.196Z,42.90
2018-03-15T17:00:05.877Z,46.97
2018-03-15T17:02:33.515Z,40.83
2018-03-15T17:05:01.124Z,42.78
2018-03-15T17:07:28.760Z,47.90
2018-03-15T17:09:56.388Z,48.80
2018-03-15T17:12:24.027Z,42.00
2018-03-15T17:14:51.635Z,45.35
2018-03-15T17:17:19.238Z,43.92
2018-03-15T17:19:47.694Z,42.05
2018-03-15T17:22:15.353Z,42.72
2018-03-15T17:24:42.979Z,47.67
2018-03-15T17:27:10.572Z,43.15
2018-03-15T17:29:38.194Z,45.40
2018-03-15T17:32:05.792Z,44.97
2018-03-15T17:34:34.194Z,47.22
2018-03-15T17:37:01.802Z,48.97
2018-03-15T17:39:29.424Z,50.75
2018-03-15T17:41:57.841Z,48.95
2018-03-15T17:44:25.452Z,45.75
2018-03-15T17:46:53.085Z,49.47
2018-03-15T17:49:20.692Z,50.40
2018-03-15T17:51:48.321Z,47.75
2018-03-15T17:54:15.934Z,49.35
2018-03-15T17:56:43.566Z,53.10
2018-03-15T17:59:11.927Z,50.67
2018-03-15T18:01:39.527Z,57.28
2018-03-15T18:04:07.911Z,53.45
2018-03-15T18:06:36.287Z,52.33
2018-03-15T18:09:03.931Z,53.20
2018-03-15T18:11:31.548Z,54.78
2018-03-15T18:13:59.186Z,58.65
2018-03-15T18:16:26.784Z,58.00
2018-03-15T18:18:54.387Z,58.38
2018-03-15T18:21:22.779Z,57.20
2018-03-15T18:23:51.180Z,57.65
2018-03-15T18:26:18.827Z,60.83
2018-03-15T18:28:46.427Z,62.85
2018-03-15T18:31:14.055Z,62.25
2018-03-15T18:33:41.671Z,60.17
2018-03-15T18:36:09.313Z,58.33
2018-03-15T18:38:36.913Z,61.45
2018-03-15T18:41:05.275Z,59.25
2018-03-15T18:43:32.911Z,55.40
2018-03-15T18:46:00.506Z,61.50
2018-03-15T18:48:28.178Z,66.97
2018-03-15T18:50:55.846Z,60.38
2018-03-15T18:53:23.459Z,60.58
2018-03-15T18:55:51.054Z,58.20
2018-03-15T18:58:18.704Z,62.22
2018-03-15T19:00:46.405Z,59.65
2018-03-15T19:03:14.056Z,56.88
2018-03-15T19:05:42.501Z,59.67
2018-03-15T19:08:10.116Z,58.13
2018-03-15T19:10:38.582Z,61.88
2018-03-15T19:13:06.305Z,56.55
2018-03-15T19:15:34.708Z,53.00
2018-03-15T19:18:02.334Z,57.58
2018-03-15T19:20:29.980Z,54.33
2018-03-15T19:22:57.602Z,58.42
2018-03-15T19:25:27.111Z,55.67
2018-03-15T19:27:55.509Z,54.50
2018-03-15T19:30:23.121Z,57.50
2018-03-15T19:32:50.748Z,60.00
2018-03-15T19:35:18.347Z,55.55
2018-03-15T19:37:46.778Z,63.25
2018-03-15T19:40:14.626Z,61.92
2018-03-15T19:42:42.288Z,57.67
2018-03-15T19:45:10.780Z,56.08
2018-03-15T19:47:39.242Z,58.67
2018-03-15T19:50:06.860Z,56.65
2018-03-15T19:52:35.291Z,49.35
2018-03-15T19:55:02.934Z,56.70
2018-03-15T19:57:30.621Z,67.25
2018-03-15T19:59:58.249Z,56.65
2018-03-15T20:02:25.910Z,64.68
2018-03-15T20:04:53.514Z,64.00
2018-03-15T20:07:21.906Z,54.15
2018-03-15T20:09:50.308Z,61.28
2018-03-15T20:12:18.695Z,63.30
2018-03-15T20:14:47.105Z,54.90
2018-03-15T20:17:14.728Z,60.45
2018-03-15T20:19:42.359Z,63.80
2018-03-15T20:22:09.966Z,61.78
2018-03-15T20:24:47.030Z,55.40
2018-03-15T20:27:14.720Z,63.63
2018-03-15T20:29:42.396Z,63.42
2018-03-15T20:32:10.088Z,63.92
2018-03-15T20:34:37.706Z,60.83
2018-03-15T20:37:07.061Z,64.28
2018-03-15T20:39:40.531Z,64.18
2018-03-15T20:42:08.961Z,73.57
2018-03-15T20:44:36.613Z,64.78
2018-03-15T20:50:04.576Z,64.35
2018-03-15T20:52:33.027Z,65.10
2018-03-15T20:55:01.603Z,70.00
2018-03-15T20:57:30.146Z,71.03
2018-03-15T20:59:57.812Z,72.90
2018-03-15T21:02:25.412Z,66.35
2018-03-15T21:04:53.088Z,68.12
2018-03-15T21:07:20.685Z,64.53
2018-03-15T21:09:48.303Z,74.95
2018-03-15T21:12:15.908Z,66.03
2018-03-15T21:14:43.526Z,68.25
2018-03-15T21:17:11.137Z,64.62
2018-03-15T21:19:38.903Z,72.70
2018-03-15T21:22:06.757Z,79.43
2018-03-15T21:24:34.663Z,69.85
2018-03-15T21:27:02.394Z,68.87
2018-03-15T21:29:29.946Z,72.30
2018-03-15T21:31:57.572Z,63.95
2018-03-15T21:34:25.182Z,73.00
2018-03-15T21:36:52.806Z,73.37
2018-03-15T21:39:20.415Z,74.72
2018-03-15T21:41:48.075Z,76.43
2018-03-15T21:44:15.684Z,77.05
2018-03-15T21:46:43.561Z,78.15
2018-03-15T21:49:12.203Z,75.95
2018-03-15T21:51:39.922Z,79.90
2018-03-15T21:54:07.518Z,77.57
2018-03-15T21:56:35.208Z,80.95
2018-03-15T21:59:02.788Z,70.10
2018-03-15T22:01:31.363Z,83.37
2018-03-15T22:04:00.119Z,79.72
2018-03-15T22:06:27.725Z,80.20
2018-03-15T22:08:55.354Z,82.95
2018-03-15T22:11:22.962Z,78.07
2018-03-15T22:13:50.593Z,84.82
2018-03-15T22:16:18.474Z,72.12
2018-03-15T22:18:46.342Z,82.88
2018-03-15T22:21:14.719Z,76.28
2018-03-15T22:23:42.324Z,77.20
2018-03-15T22:26:09.952Z,82.72
2018-03-15T22:28:37.566Z,81.50
2018-03-15T22:31:06.102Z,85.75
2018-03-15T22:33:33.898Z,77.68
2018-03-15T22:36:01.522Z,85.95
2018-03-15T22:38:29.561Z,82.60
2018-03-15T22:40:57.218Z,78.03
2018-03-15T22:43:24.830Z,86.25
2018-03-15T22:45:53.206Z,84.93
2018-03-15T22:48:20.829Z,85.43
2018-03-15T22:50:48.459Z,89.13
2018-03-15T22:53:16.082Z,80.60
2018-03-15T22:55:43.968Z,79.07
2018-03-15T22:58:11.795Z,89.05
2018-03-15T23:00:39.394Z,84.93
2018-03-15T23:03:07.325Z,87.25
2018-03-15T23:05:34.955Z,92.00
2018-03-15T23:08:02.554Z,87.03
2018-03-15T23:10:30.173Z,88.18
2018-03-15T23:12:57.774Z,85.32
2018-03-15T23:15:25.402Z,90.40
2018-03-15T23:17:53.004Z,85.35
2018-03-15T23:20:21.400Z,94.72
2018-03-15T23:22:49.763Z,92.05
2018-03-15T23:25:17.408Z,100.68
2018-03-15T23:27:45.000Z,88.37
2018-03-15T23:30:12.767Z,87.32
2018-03-15T23:32:40.442Z,89.25
2018-03-15T23:35:08.396Z,96.53
2018-03-15T23:37:36.019Z,89.45
2018-03-15T23:40:03.631Z,110.07
2018-03-15T23:42:31.389Z,93.70
2018-03-15T23:44:59.755Z,92.97
2018-03-15T23:47:27.412Z,91.07
2018-03-15T23:49:55.009Z,87.70
2018-03-15T23:52:22.665Z,90.03
2018-03-15T23:54:50.288Z,90.50
2018-03-15T23:57:18.673Z,94.35
2018-03-15T23:59:46.351Z,88.50
